Архив погоды в Вохме

Метеограмма Вохма
Среда, 22 Мая
Время местн. Темп Ветер Видим Явления Облачность нижн/средн/верх Атм. давл. Влжн Точка росы ВНГО R Сост. почвы Tg s
Напр Скр Прв ур.ст ур.м изм
21:00 +13.2° Ю-З 1 - 50 км - облачно с прояснениями 742 757 -0.5 67% +7.3° 1.5 км - - - -
18:00 +17.3° Ю-З 1 - 40 км - облачно с прояснениями 743 757 -0.9 44% +5° 1.5 км - - - -
15:00 +19.1° Ю-З 3 - 40 км - облачно с прояснениями 744 758 -1.1 30% +1.1° 2 км - - - -
12:00 +18.1° Ю 3 - 40 км - переменная облачность 745 759 -1.3 27% -1.3° 2 км - - - -
09:00 +13.7° Ю 1 - 40 км - облачно с прояснениями 746 760 -0.7 38% -0.3° 1.5 км - - - -
06:00 +6.8° С,С-В 1 - 40 км - облачно с прояснениями 747 762 -0.6 73% +2.4° 1 км - Влажная (без луж) - -
03:00 +3.8° штиль 0 - 40 км - переменная облачность 748 762 -0.5 85% +1.5° 1 км - - - -
00:00 +2.2° штиль 0 - 50 км - переменная облачность 748 763 -0.2 85% -0.1° 1 км - - - -
Вторник, 21 Мая
Время местн. Темп Ветер Видим Явления Облачность нижн/средн/верх Атм. давл. Влжн Точка росы ВНГО R Сост. почвы Tg s
Напр Скр Прв ур.ст ур.м изм
21:00 +5.7° С 1 - 40 км - переменная облачность 748 763 -0.2 74% +1.4° - - - - -
18:00 +14.3° С 1 - 40 км - переменная облачность 749 763 -0.8 27% -4.5° - - - - -
15:00 +16.2° С-З 2 - 40 км - переменная облачность 749 764 -0.7 22% -5.6° - - - - -
12:00 +13.9° С-З 2 - 40 км - переменная облачность 750 764 -1.1 26% -5.1° - - - - -
09:00 +11.7° С 3 - 40 км - переменная облачность 751 765 -0.3 35% -3.1° - - - - -
06:00 +7° С-В 1 - 40 км - ясно 751 766 +0.5 56% -1.1° более 2.5 км - Сухая (без трещин) - -
03:00 -0.4° штиль 0 - 40 км - ясно 751 766 +0.4 83% -2.9° более 2.5 км - - - -
00:00 -0.2° штиль 0 - 50 км - ясно 750 766 +0.5 86% -2.2° более 2.5 км - - - -
Понедельник, 20 Мая
Время местн. Темп Ветер Видим Явления Облачность нижн/средн/верх Атм. давл. Влжн Точка росы ВНГО R Сост. почвы Tg s
Напр Скр Прв ур.ст ур.м изм
21:00 +4.3° штиль 0 - 50 км - переменная облачность 750 765 +0.5 71% -0.4° - - - - -
18:00 +11.8° С 3 - 40 км - переменная облачность 750 764 +0.1 34% -3.4° 1.5 км 0 - - -
15:00 +11.7° С 3 - 40 км - облачно с прояснениями 750 764 +0.1 35% -3.3° 1.5 км - - - -
12:00 +11.7° С 2 - 40 км - облачно с прояснениями 749 764 -0.4 41% -1.2° 2 км - - - -
09:00 +8.1° З,С-З 2 - 40 км - облачно с прояснениями 750 764 0 62% +1.3° 1.5 км - - - -
06:00 +4.6° С-З 1 - 40 км - облачно 750 765 +0.7 75% +0.6° 1 км - Влажная (без луж) - -
03:00 +4.5° С 2 - 40 км - облачно 749 764 +0.2 71% -0.3° 1 км - - - -
00:00 +5° С 1 - 50 км - облачно 749 764 +0.1 69% -0.3° 1 км - - - -
Воскресенье, 19 Мая
Время местн. Темп Ветер Видим Явления Облачность нижн/средн/верх Атм. давл. Влжн Точка росы ВНГО R Сост. почвы Tg s
Напр Скр Прв ур.ст ур.м изм
21:00 +5.7° С,С-З 1 - 50 км - облачно 749 764 +0.8 62% -0.9° 1 км - - - -
18:00 +7.8° С 5 - 40 км - преимущественно облачно 748 763 +1 50% -2° 1 км - - - -